sensor_id;sensor_type;location;lat;lon;timestamp;P1;durP1;ratioP1;P2;durP2;ratioP2
52798;SDS011;38667;42.872;74.622;2022-09-13T00:01:39;21.90;;;5.10;;
52798;SDS011;38667;42.872;74.622;2022-09-13T00:04:05;20.92;;;4.65;;
52798;SDS011;38667;42.872;74.622;2022-09-13T00:06:31;21.85;;;5.13;;
52798;SDS011;38667;42.872;74.622;2022-09-13T00:08:58;22.40;;;4.95;;
52798;SDS011;38667;42.872;74.622;2022-09-13T00:11:25;28.00;;;5.97;;
52798;SDS011;38667;42.872;74.622;2022-09-13T00:13:54;28.27;;;5.72;;
52798;SDS011;38667;42.872;74.622;2022-09-13T00:16:22;24.85;;;5.70;;
52798;SDS011;38667;42.872;74.622;2022-09-13T00:18:50;28.00;;;6.72;;
52798;SDS011;38667;42.872;74.622;2022-09-13T00:21:17;41.28;;;8.35;;
52798;SDS011;38667;42.872;74.622;2022-09-13T00:23:45;24.65;;;7.47;;
52798;SDS011;38667;42.872;74.622;2022-09-13T00:26:13;31.25;;;8.00;;
52798;SDS011;38667;42.872;74.622;2022-09-13T00:28:40;26.73;;;7.50;;
52798;SDS011;38667;42.872;74.622;2022-09-13T00:31:08;27.63;;;7.60;;
52798;SDS011;38667;42.872;74.622;2022-09-13T00:33:35;28.23;;;6.88;;
52798;SDS011;38667;42.872;74.622;2022-09-13T00:36:05;28.25;;;7.18;;
52798;SDS011;38667;42.872;74.622;2022-09-13T00:38:34;23.08;;;6.82;;
52798;SDS011;38667;42.872;74.622;2022-09-13T00:41:00;26.00;;;6.82;;
52798;SDS011;38667;42.872;74.622;2022-09-13T00:43:39;30.20;;;7.82;;
52798;SDS011;38667;42.872;74.622;2022-09-13T00:46:10;34.90;;;6.40;;
52798;SDS011;38667;42.872;74.622;2022-09-13T00:48:40;31.25;;;6.88;;
52798;SDS011;38667;42.872;74.622;2022-09-13T00:51:06;30.02;;;6.25;;
52798;SDS011;38667;42.872;74.622;2022-09-13T00:53:35;26.35;;;5.97;;
52798;SDS011;38667;42.872;74.622;2022-09-13T00:56:04;25.15;;;6.63;;
52798;SDS011;38667;42.872;74.622;2022-09-13T00:58:35;39.20;;;6.43;;
52798;SDS011;38667;42.872;74.622;2022-09-13T01:01:06;27.60;;;5.95;;
52798;SDS011;38667;42.872;74.622;2022-09-13T01:03:37;27.25;;;5.63;;
52798;SDS011;38667;42.872;74.622;2022-09-13T01:06:06;29.80;;;5.28;;
52798;SDS011;38667;42.872;74.622;2022-09-13T01:08:35;31.13;;;4.70;;
52798;SDS011;38667;42.872;74.622;2022-09-13T01:11:04;29.02;;;5.07;;
52798;SDS011;38667;42.872;74.622;2022-09-13T01:13:35;26.40;;;5.35;;
52798;SDS011;38667;42.872;74.622;2022-09-13T01:16:02;32.92;;;5.57;;
52798;SDS011;38667;42.872;74.622;2022-09-13T01:18:30;25.30;;;4.57;;
52798;SDS011;38667;42.872;74.622;2022-09-13T01:21:05;38.63;;;5.72;;
52798;SDS011;38667;42.872;74.622;2022-09-13T01:24:03;22.63;;;4.50;;
52798;SDS011;38667;42.872;74.622;2022-09-13T01:26:59;24.05;;;4.95;;
52798;SDS011;38667;42.872;74.622;2022-09-13T01:32:34;30.05;;;5.53;;
52798;SDS011;38667;42.872;74.622;2022-09-13T01:35:09;28.60;;;5.88;;
52798;SDS011;38667;42.872;74.622;2022-09-13T01:37:43;30.20;;;4.90;;
52798;SDS011;38667;42.872;74.622;2022-09-13T01:40:16;31.73;;;6.72;;
52798;SDS011;38667;42.872;74.622;2022-09-13T01:43:03;31.13;;;7.15;;
52798;SDS011;38667;42.872;74.622;2022-09-13T01:45:43;32.72;;;7.03;;
52798;SDS011;38667;42.872;74.622;2022-09-13T01:48:15;34.78;;;6.30;;
52798;SDS011;38667;42.872;74.622;2022-09-13T01:50:46;39.05;;;6.95;;
52798;SDS011;38667;42.872;74.622;2022-09-13T01:53:22;45.00;;;8.45;;
52798;SDS011;38667;42.872;74.622;2022-09-13T01:55:55;37.08;;;9.93;;
52798;SDS011;38667;42.872;74.622;2022-09-13T01:58:28;32.17;;;8.63;;
52798;SDS011;38667;42.872;74.622;2022-09-13T02:01:05;27.67;;;9.50;;
52798;SDS011;38667;42.872;74.622;2022-09-13T02:03:36;34.47;;;10.05;;
52798;SDS011;38667;42.872;74.622;2022-09-13T02:06:07;41.78;;;9.63;;
52798;SDS011;38667;42.872;74.622;2022-09-13T02:08:39;42.75;;;8.80;;
52798;SDS011;38667;42.872;74.622;2022-09-13T02:11:08;40.33;;;10.60;;
52798;SDS011;38667;42.872;74.622;2022-09-13T02:13:36;40.03;;;9.52;;
52798;SDS011;38667;42.872;74.622;2022-09-13T02:16:08;44.35;;;9.82;;
52798;SDS011;38667;42.872;74.622;2022-09-13T02:18:40;31.10;;;9.52;;
52798;SDS011;38667;42.872;74.622;2022-09-13T02:21:08;44.58;;;9.77;;
52798;SDS011;38667;42.872;74.622;2022-09-13T02:23:37;39.08;;;10.43;;
52798;SDS011;38667;42.872;74.622;2022-09-13T02:26:07;37.15;;;10.15;;
52798;SDS011;38667;42.872;74.622;2022-09-13T02:28:37;50.67;;;12.60;;
52798;SDS011;38667;42.872;74.622;2022-09-13T02:31:09;44.28;;;11.20;;
52798;SDS011;38667;42.872;74.622;2022-09-13T02:33:37;36.17;;;10.88;;
52798;SDS011;38667;42.872;74.622;2022-09-13T02:36:08;48.40;;;11.07;;
52798;SDS011;38667;42.872;74.622;2022-09-13T02:38:37;56.58;;;11.52;;
52798;SDS011;38667;42.872;74.622;2022-09-13T02:41:09;47.72;;;12.23;;
52798;SDS011;38667;42.872;74.622;2022-09-13T02:43:41;44.78;;;11.38;;
52798;SDS011;38667;42.872;74.622;2022-09-13T02:46:16;37.10;;;10.68;;
52798;SDS011;38667;42.872;74.622;2022-09-13T02:48:55;40.25;;;11.45;;
52798;SDS011;38667;42.872;74.622;2022-09-13T02:51:28;44.08;;;11.75;;
52798;SDS011;38667;42.872;74.622;2022-09-13T02:54:02;40.30;;;10.85;;
52798;SDS011;38667;42.872;74.622;2022-09-13T02:56:40;37.70;;;11.27;;
52798;SDS011;38667;42.872;74.622;2022-09-13T02:59:13;33.88;;;10.77;;
52798;SDS011;38667;42.872;74.622;2022-09-13T03:01:43;44.33;;;11.75;;
52798;SDS011;38667;42.872;74.622;2022-09-13T03:04:12;39.05;;;10.80;;
52798;SDS011;38667;42.872;74.622;2022-09-13T03:06:39;34.33;;;11.00;;
52798;SDS011;38667;42.872;74.622;2022-09-13T03:09:05;41.13;;;11.38;;
52798;SDS011;38667;42.872;74.622;2022-09-13T03:11:35;40.70;;;10.35;;
52798;SDS011;38667;42.872;74.622;2022-09-13T03:14:11;39.63;;;9.55;;
52798;SDS011;38667;42.872;74.622;2022-09-13T03:16:53;38.28;;;10.25;;
52798;SDS011;38667;42.872;74.622;2022-09-13T03:19:42;40.20;;;11.73;;
52798;SDS011;38667;42.872;74.622;2022-09-13T03:22:22;29.45;;;9.20;;
52798;SDS011;38667;42.872;74.622;2022-09-13T03:25:03;42.80;;;10.30;;
52798;SDS011;38667;42.872;74.622;2022-09-13T03:27:37;39.20;;;10.73;;
52798;SDS011;38667;42.872;74.622;2022-09-13T03:30:13;33.38;;;9.25;;
52798;SDS011;38667;42.872;74.622;2022-09-13T03:32:44;37.80;;;9.48;;
52798;SDS011;38667;42.872;74.622;2022-09-13T03:35:17;34.50;;;9.38;;
52798;SDS011;38667;42.872;74.622;2022-09-13T03:37:52;36.63;;;9.23;;
52798;SDS011;38667;42.872;74.622;2022-09-13T03:40:25;29.20;;;8.75;;
52798;SDS011;38667;42.872;74.622;2022-09-13T03:43:00;32.97;;;8.52;;
52798;SDS011;38667;42.872;74.622;2022-09-13T03:45:32;36.63;;;9.07;;
52798;SDS011;38667;42.872;74.622;2022-09-13T03:48:04;28.80;;;9.20;;
52798;SDS011;38667;42.872;74.622;2022-09-13T03:50:32;28.80;;;8.20;;
52798;SDS011;38667;42.872;74.622;2022-09-13T03:52:59;33.95;;;8.48;;
52798;SDS011;38667;42.872;74.622;2022-09-13T03:55:30;41.70;;;8.95;;
52798;SDS011;38667;42.872;74.622;2022-09-13T03:57:59;40.67;;;8.38;;
52798;SDS011;38667;42.872;74.622;2022-09-13T04:00:25;24.02;;;7.68;;
52798;SDS011;38667;42.872;74.622;2022-09-13T04:02:52;32.08;;;9.10;;
52798;SDS011;38667;42.872;74.622;2022-09-13T04:05:20;32.10;;;8.13;;
52798;SDS011;38667;42.872;74.622;2022-09-13T04:07:46;31.40;;;7.50;;
52798;SDS011;38667;42.872;74.622;2022-09-13T04:10:12;31.65;;;8.18;;
52798;SDS011;38667;42.872;74.622;2022-09-13T04:12:38;25.00;;;7.43;;
52798;SDS011;38667;42.872;74.622;2022-09-13T04:15:05;35.47;;;8.32;;
52798;SDS011;38667;42.872;74.622;2022-09-13T04:17:32;32.13;;;7.40;;
52798;SDS011;38667;42.872;74.622;2022-09-13T04:19:59;37.75;;;8.35;;
52798;SDS011;38667;42.872;74.622;2022-09-13T04:22:27;27.15;;;7.22;;
52798;SDS011;38667;42.872;74.622;2022-09-13T04:24:53;27.40;;;7.07;;
52798;SDS011;38667;42.872;74.622;2022-09-13T04:27:19;28.40;;;7.60;;
52798;SDS011;38667;42.872;74.622;2022-09-13T04:29:46;29.85;;;7.75;;
52798;SDS011;38667;42.872;74.622;2022-09-13T04:32:12;39.58;;;9.35;;
52798;SDS011;38667;42.872;74.622;2022-09-13T04:34:38;28.83;;;7.43;;
52798;SDS011;38667;42.872;74.622;2022-09-13T04:37:04;30.67;;;8.38;;
52798;SDS011;38667;42.872;74.622;2022-09-13T04:39:32;32.28;;;8.38;;
52798;SDS011;38667;42.872;74.622;2022-09-13T04:41:59;20.23;;;6.45;;
52798;SDS011;38667;42.872;74.622;2022-09-13T04:44:25;28.95;;;7.32;;
52798;SDS011;38667;42.872;74.622;2022-09-13T04:46:51;24.15;;;6.68;;
52798;SDS011;38667;42.872;74.622;2022-09-13T04:49:18;23.38;;;6.38;;
52798;SDS011;38667;42.872;74.622;2022-09-13T04:51:44;29.05;;;7.47;;
52798;SDS011;38667;42.872;74.622;2022-09-13T04:54:11;31.73;;;7.47;;
52798;SDS011;38667;42.872;74.622;2022-09-13T04:56:39;25.13;;;6.45;;
52798;SDS011;38667;42.872;74.622;2022-09-13T04:59:05;32.53;;;6.47;;
52798;SDS011;38667;42.872;74.622;2022-09-13T05:01:31;31.95;;;6.57;;
52798;SDS011;38667;42.872;74.622;2022-09-13T05:03:57;35.85;;;6.63;;
52798;SDS011;38667;42.872;74.622;2022-09-13T05:06:24;29.25;;;6.25;;
52798;SDS011;38667;42.872;74.622;2022-09-13T05:08:50;26.52;;;6.00;;
52798;SDS011;38667;42.872;74.622;2022-09-13T05:11:17;42.55;;;6.57;;
52798;SDS011;38667;42.872;74.622;2022-09-13T05:13:48;24.70;;;5.47;;
52798;SDS011;38667;42.872;74.622;2022-09-13T05:16:15;26.83;;;6.68;;
52798;SDS011;38667;42.872;74.622;2022-09-13T05:18:41;33.30;;;6.18;;
52798;SDS011;38667;42.872;74.622;2022-09-13T05:21:07;27.15;;;5.57;;
52798;SDS011;38667;42.872;74.622;2022-09-13T05:23:34;16.98;;;4.93;;
52798;SDS011;38667;42.872;74.622;2022-09-13T05:26:02;22.10;;;4.65;;
52798;SDS011;38667;42.872;74.622;2022-09-13T05:28:31;22.98;;;6.25;;
52798;SDS011;38667;42.872;74.622;2022-09-13T05:31:00;23.35;;;5.78;;
52798;SDS011;38667;42.872;74.622;2022-09-13T05:33:42;22.85;;;5.05;;
52798;SDS011;38667;42.872;74.622;2022-09-13T05:36:09;28.55;;;5.85;;
52798;SDS011;38667;42.872;74.622;2022-09-13T05:38:36;27.65;;;6.15;;
52798;SDS011;38667;42.872;74.622;2022-09-13T05:41:02;28.88;;;5.97;;
52798;SDS011;38667;42.872;74.622;2022-09-13T05:43:30;34.03;;;5.68;;
52798;SDS011;38667;42.872;74.622;2022-09-13T05:46:03;33.72;;;6.07;;
52798;SDS011;38667;42.872;74.622;2022-09-13T05:48:30;24.38;;;6.57;;
52798;SDS011;38667;42.872;74.622;2022-09-13T05:51:02;33.13;;;6.25;;
52798;SDS011;38667;42.872;74.622;2022-09-13T05:53:30;36.25;;;6.43;;
52798;SDS011;38667;42.872;74.622;2022-09-13T05:55:56;33.13;;;7.90;;
52798;SDS011;38667;42.872;74.622;2022-09-13T05:58:23;52.83;;;11.02;;
52798;SDS011;38667;42.872;74.622;2022-09-13T06:00:51;35.15;;;9.88;;
52798;SDS011;38667;42.872;74.622;2022-09-13T06:03:19;35.50;;;10.80;;
52798;SDS011;38667;42.872;74.622;2022-09-13T06:05:46;58.40;;;17.38;;
52798;SDS011;38667;42.872;74.622;2022-09-13T06:08:12;61.70;;;20.17;;
52798;SDS011;38667;42.872;74.622;2022-09-13T06:10:38;63.67;;;22.25;;
52798;SDS011;38667;42.872;74.622;2022-09-13T06:13:05;52.00;;;20.75;;
52798;SDS011;38667;42.872;74.622;2022-09-13T06:15:31;64.55;;;22.15;;
52798;SDS011;38667;42.872;74.622;2022-09-13T06:17:58;67.15;;;21.70;;
52798;SDS011;38667;42.872;74.622;2022-09-13T06:20:25;60.33;;;21.05;;
52798;SDS011;38667;42.872;74.622;2022-09-13T06:22:52;55.85;;;19.38;;
52798;SDS011;38667;42.872;74.622;2022-09-13T06:25:18;61.28;;;19.77;;
52798;SDS011;38667;42.872;74.622;2022-09-13T06:27:44;51.13;;;17.75;;
52798;SDS011;38667;42.872;74.622;2022-09-13T06:30:11;63.40;;;18.08;;
52798;SDS011;38667;42.872;74.622;2022-09-13T06:32:37;53.45;;;28.20;;
52798;SDS011;38667;42.872;74.622;2022-09-13T06:35:04;50.53;;;20.17;;
52798;SDS011;38667;42.872;74.622;2022-09-13T06:37:32;53.45;;;16.63;;
52798;SDS011;38667;42.872;74.622;2022-09-13T06:39:59;55.25;;;16.10;;
52798;SDS011;38667;42.872;74.622;2022-09-13T06:42:25;38.15;;;11.77;;
52798;SDS011;38667;42.872;74.622;2022-09-13T06:44:51;34.35;;;12.27;;
52798;SDS011;38667;42.872;74.622;2022-09-13T06:47:18;30.95;;;10.05;;
52798;SDS011;38667;42.872;74.622;2022-09-13T06:49:44;37.60;;;7.22;;
52798;SDS011;38667;42.872;74.622;2022-09-13T06:52:10;25.65;;;9.15;;
52798;SDS011;38667;42.872;74.622;2022-09-13T06:54:38;36.67;;;7.82;;
52798;SDS011;38667;42.872;74.622;2022-09-13T06:57:04;23.17;;;7.20;;
52798;SDS011;38667;42.872;74.622;2022-09-13T06:59:30;34.83;;;8.43;;
52798;SDS011;38667;42.872;74.622;2022-09-13T07:01:57;25.98;;;6.22;;
52798;SDS011;38667;42.872;74.622;2022-09-13T07:04:23;32.05;;;6.95;;
52798;SDS011;38667;42.872;74.622;2022-09-13T07:06:49;29.23;;;7.05;;
52798;SDS011;38667;42.872;74.622;2022-09-13T07:09:17;29.42;;;6.15;;
52798;SDS011;38667;42.872;74.622;2022-09-13T07:11:46;24.75;;;5.72;;
52798;SDS011;38667;42.872;74.622;2022-09-13T07:14:16;24.27;;;5.25;;
52798;SDS011;38667;42.872;74.622;2022-09-13T07:16:43;24.45;;;5.35;;
52798;SDS011;38667;42.872;74.622;2022-09-13T07:19:12;25.52;;;5.50;;
52798;SDS011;38667;42.872;74.622;2022-09-13T07:21:39;41.28;;;6.75;;
52798;SDS011;38667;42.872;74.622;2022-09-13T07:24:05;30.85;;;5.25;;
52798;SDS011;38667;42.872;74.622;2022-09-13T07:26:32;32.05;;;5.47;;
52798;SDS011;38667;42.872;74.622;2022-09-13T07:29:00;25.88;;;6.22;;
52798;SDS011;38667;42.872;74.622;2022-09-13T07:31:30;18.25;;;5.38;;
52798;SDS011;38667;42.872;74.622;2022-09-13T07:33:58;25.85;;;5.53;;
52798;SDS011;38667;42.872;74.622;2022-09-13T07:36:25;23.08;;;5.07;;
52798;SDS011;38667;42.872;74.622;2022-09-13T07:38:53;21.85;;;4.88;;
52798;SDS011;38667;42.872;74.622;2022-09-13T07:41:20;23.23;;;4.85;;
52798;SDS011;38667;42.872;74.622;2022-09-13T07:43:47;26.48;;;4.82;;
52798;SDS011;38667;42.872;74.622;2022-09-13T07:46:15;26.73;;;5.50;;
52798;SDS011;38667;42.872;74.622;2022-09-13T07:48:43;33.40;;;5.78;;
52798;SDS011;38667;42.872;74.622;2022-09-13T07:51:11;28.58;;;5.38;;
52798;SDS011;38667;42.872;74.622;2022-09-13T07:53:38;28.65;;;6.10;;
52798;SDS011;38667;42.872;74.622;2022-09-13T07:56:06;21.67;;;4.97;;
52798;SDS011;38667;42.872;74.622;2022-09-13T07:58:34;34.25;;;5.10;;
52798;SDS011;38667;42.872;74.622;2022-09-13T08:01:03;25.48;;;5.82;;
52798;SDS011;38667;42.872;74.622;2022-09-13T08:03:33;26.58;;;4.38;;
52798;SDS011;38667;42.872;74.622;2022-09-13T08:06:01;28.70;;;4.50;;
52798;SDS011;38667;42.872;74.622;2022-09-13T08:08:28;26.02;;;4.68;;
52798;SDS011;38667;42.872;74.622;2022-09-13T08:10:55;28.40;;;4.90;;
52798;SDS011;38667;42.872;74.622;2022-09-13T08:13:22;24.20;;;5.20;;
52798;SDS011;38667;42.872;74.622;2022-09-13T08:15:49;27.98;;;4.43;;
52798;SDS011;38667;42.872;74.622;2022-09-13T08:18:15;34.03;;;5.00;;
52798;SDS011;38667;42.872;74.622;2022-09-13T08:20:45;26.60;;;5.22;;
52798;SDS011;38667;42.872;74.622;2022-09-13T08:23:12;27.35;;;5.78;;
52798;SDS011;38667;42.872;74.622;2022-09-13T08:25:39;18.42;;;4.40;;
52798;SDS011;38667;42.872;74.622;2022-09-13T08:28:05;34.97;;;4.45;;
52798;SDS011;38667;42.872;74.622;2022-09-13T08:30:33;16.10;;;4.10;;
52798;SDS011;38667;42.872;74.622;2022-09-13T08:33:00;30.73;;;5.47;;
52798;SDS011;38667;42.872;74.622;2022-09-13T08:35:26;21.88;;;4.35;;
52798;SDS011;38667;42.872;74.622;2022-09-13T08:37:56;32.17;;;4.68;;
52798;SDS011;38667;42.872;74.622;2022-09-13T08:40:23;25.60;;;5.20;;
52798;SDS011;38667;42.872;74.622;2022-09-13T08:42:53;28.25;;;5.90;;
52798;SDS011;38667;42.872;74.622;2022-09-13T08:45:27;20.58;;;5.22;;
52798;SDS011;38667;42.872;74.622;2022-09-13T08:47:55;18.88;;;4.57;;
52798;SDS011;38667;42.872;74.622;2022-09-13T08:50:25;21.58;;;4.78;;
52798;SDS011;38667;42.872;74.622;2022-09-13T08:52:55;24.48;;;4.88;;
52798;SDS011;38667;42.872;74.622;2022-09-13T08:55:32;21.48;;;4.28;;
52798;SDS011;38667;42.872;74.622;2022-09-13T08:58:17;30.17;;;4.95;;
52798;SDS011;38667;42.872;74.622;2022-09-13T09:01:04;16.30;;;3.70;;
52798;SDS011;38667;42.872;74.622;2022-09-13T09:03:37;21.70;;;4.95;;
52798;SDS011;38667;42.872;74.622;2022-09-13T09:06:13;30.35;;;6.40;;
52798;SDS011;38667;42.872;74.622;2022-09-13T09:08:44;25.38;;;5.22;;
52798;SDS011;38667;42.872;74.622;2022-09-13T09:11:16;23.33;;;4.47;;
52798;SDS011;38667;42.872;74.622;2022-09-13T09:13:51;24.60;;;4.65;;
52798;SDS011;38667;42.872;74.622;2022-09-13T09:16:28;23.45;;;4.72;;
52798;SDS011;38667;42.872;74.622;2022-09-13T09:19:07;23.58;;;5.10;;
52798;SDS011;38667;42.872;74.622;2022-09-13T09:21:40;21.27;;;4.00;;
52798;SDS011;38667;42.872;74.622;2022-09-13T09:24:11;24.27;;;4.03;;
52798;SDS011;38667;42.872;74.622;2022-09-13T09:26:43;22.83;;;3.35;;
52798;SDS011;38667;42.872;74.622;2022-09-13T09:29:11;19.48;;;4.10;;
52798;SDS011;38667;42.872;74.622;2022-09-13T09:31:43;22.08;;;4.00;;
52798;SDS011;38667;42.872;74.622;2022-09-13T09:34:17;26.45;;;5.03;;
52798;SDS011;38667;42.872;74.622;2022-09-13T09:36:50;31.73;;;6.20;;
52798;SDS011;38667;42.872;74.622;2022-09-13T09:39:23;16.67;;;3.53;;
52798;SDS011;38667;42.872;74.622;2022-09-13T09:41:54;13.68;;;3.78;;
52798;SDS011;38667;42.872;74.622;2022-09-13T09:44:21;18.40;;;4.18;;
52798;SDS011;38667;42.872;74.622;2022-09-13T09:46:51;14.88;;;3.58;;
52798;SDS011;38667;42.872;74.622;2022-09-13T09:49:23;20.63;;;3.92;;
52798;SDS011;38667;42.872;74.622;2022-09-13T09:51:56;23.98;;;4.70;;
52798;SDS011;38667;42.872;74.622;2022-09-13T09:54:25;19.25;;;4.13;;
52798;SDS011;38667;42.872;74.622;2022-09-13T09:56:52;13.40;;;3.05;;
52798;SDS011;38667;42.872;74.622;2022-09-13T09:59:24;26.85;;;4.22;;
52798;SDS011;38667;42.872;74.622;2022-09-13T10:01:52;15.77;;;3.03;;
52798;SDS011;38667;42.872;74.622;2022-09-13T10:04:19;17.70;;;3.75;;
52798;SDS011;38667;42.872;74.622;2022-09-13T10:06:46;16.88;;;3.28;;
52798;SDS011;38667;42.872;74.622;2022-09-13T10:09:14;16.13;;;3.50;;
52798;SDS011;38667;42.872;74.622;2022-09-13T10:11:45;15.15;;;3.13;;
52798;SDS011;38667;42.872;74.622;2022-09-13T10:17:13;15.70;;;3.08;;
52798;SDS011;38667;42.872;74.622;2022-09-13T10:19:49;25.55;;;3.58;;
52798;SDS011;38667;42.872;74.622;2022-09-13T10:22:17;19.33;;;3.55;;
52798;SDS011;38667;42.872;74.622;2022-09-13T10:24:44;14.50;;;3.50;;
52798;SDS011;38667;42.872;74.622;2022-09-13T10:27:19;19.92;;;3.25;;
52798;SDS011;38667;42.872;74.622;2022-09-13T10:29:49;24.90;;;3.88;;
52798;SDS011;38667;42.872;74.622;2022-09-13T10:32:19;16.70;;;3.05;;
52798;SDS011;38667;42.872;74.622;2022-09-13T10:34:45;18.40;;;3.60;;
52798;SDS011;38667;42.872;74.622;2022-09-13T10:37:14;21.95;;;3.58;;
52798;SDS011;38667;42.872;74.622;2022-09-13T10:39:52;22.33;;;3.80;;
52798;SDS011;38667;42.872;74.622;2022-09-13T10:42:23;26.25;;;3.60;;
52798;SDS011;38667;42.872;74.622;2022-09-13T10:44:51;23.77;;;3.40;;
52798;SDS011;38667;42.872;74.622;2022-09-13T10:47:20;25.67;;;4.20;;
52798;SDS011;38667;42.872;74.622;2022-09-13T10:49:49;18.10;;;3.50;;
52798;SDS011;38667;42.872;74.622;2022-09-13T10:52:27;18.30;;;2.70;;
52798;SDS011;38667;42.872;74.622;2022-09-13T10:55:01;21.70;;;3.45;;
52798;SDS011;38667;42.872;74.622;2022-09-13T10:57:52;19.20;;;2.67;;
52798;SDS011;38667;42.872;74.622;2022-09-13T11:00:20;18.65;;;3.42;;
52798;SDS011;38667;42.872;74.622;2022-09-13T11:02:52;17.05;;;3.97;;
52798;SDS011;38667;42.872;74.622;2022-09-13T11:05:27;24.55;;;4.15;;
52798;SDS011;38667;42.872;74.622;2022-09-13T11:08:04;17.92;;;3.63;;
52798;SDS011;38667;42.872;74.622;2022-09-13T11:10:49;20.23;;;3.00;;
52798;SDS011;38667;42.872;74.622;2022-09-13T11:13:30;11.20;;;2.80;;
52798;SDS011;38667;42.872;74.622;2022-09-13T11:16:05;19.05;;;3.75;;
52798;SDS011;38667;42.872;74.622;2022-09-13T11:18:56;16.25;;;2.58;;
52798;SDS011;38667;42.872;74.622;2022-09-13T11:21:35;24.25;;;3.40;;
52798;SDS011;38667;42.872;74.622;2022-09-13T11:24:14;10.57;;;2.92;;
52798;SDS011;38667;42.872;74.622;2022-09-13T11:26:56;11.70;;;3.15;;
52798;SDS011;38667;42.872;74.622;2022-09-13T11:29:32;15.85;;;2.95;;
52798;SDS011;38667;42.872;74.622;2022-09-13T11:32:14;14.82;;;3.30;;
52798;SDS011;38667;42.872;74.622;2022-09-13T11:34:53;22.65;;;3.67;;
52798;SDS011;38667;42.872;74.622;2022-09-13T11:37:39;13.77;;;3.15;;
52798;SDS011;38667;42.872;74.622;2022-09-13T11:40:27;23.20;;;3.75;;
52798;SDS011;38667;42.872;74.622;2022-09-13T11:43:03;12.48;;;3.15;;
52798;SDS011;38667;42.872;74.622;2022-09-13T11:45:42;20.02;;;3.15;;
52798;SDS011;38667;42.872;74.622;2022-09-13T11:48:18;19.20;;;3.65;;
52798;SDS011;38667;42.872;74.622;2022-09-13T11:50:55;14.52;;;3.22;;
52798;SDS011;38667;42.872;74.622;2022-09-13T11:56:23;16.27;;;2.83;;
52798;SDS011;38667;42.872;74.622;2022-09-13T11:58:53;19.10;;;3.13;;
52798;SDS011;38667;42.872;74.622;2022-09-13T12:01:27;21.58;;;3.15;;
52798;SDS011;38667;42.872;74.622;2022-09-13T12:03:58;19.58;;;3.03;;
52798;SDS011;38667;42.872;74.622;2022-09-13T12:06:30;19.80;;;3.15;;
52798;SDS011;38667;42.872;74.622;2022-09-13T12:09:00;17.15;;;3.45;;
52798;SDS011;38667;42.872;74.622;2022-09-13T12:11:32;17.88;;;3.70;;
52798;SDS011;38667;42.872;74.622;2022-09-13T12:14:01;26.80;;;4.20;;
52798;SDS011;38667;42.872;74.622;2022-09-13T12:16:32;23.92;;;3.95;;
52798;SDS011;38667;42.872;74.622;2022-09-13T12:19:04;20.25;;;3.88;;
52798;SDS011;38667;42.872;74.622;2022-09-13T12:21:36;18.85;;;3.78;;
52798;SDS011;38667;42.872;74.622;2022-09-13T12:24:05;17.88;;;4.38;;
52798;SDS011;38667;42.872;74.622;2022-09-13T12:26:40;27.05;;;4.05;;
52798;SDS011;38667;42.872;74.622;2022-09-13T12:29:12;23.35;;;4.20;;
52798;SDS011;38667;42.872;74.622;2022-09-13T12:31:44;21.05;;;3.13;;
52798;SDS011;38667;42.872;74.622;2022-09-13T12:34:10;16.50;;;3.03;;
52798;SDS011;38667;42.872;74.622;2022-09-13T12:37:02;14.57;;;3.53;;
52798;SDS011;38667;42.872;74.622;2022-09-13T12:39:51;18.65;;;3.22;;
52798;SDS011;38667;42.872;74.622;2022-09-13T12:45:55;21.00;;;4.80;;
52798;SDS011;38667;42.872;74.622;2022-09-13T12:48:40;27.80;;;5.05;;
52798;SDS011;38667;42.872;74.622;2022-09-13T12:51:27;18.75;;;4.10;;
52798;SDS011;38667;42.872;74.622;2022-09-13T12:54:14;26.92;;;4.30;;
52798;SDS011;38667;42.872;74.622;2022-09-13T12:57:13;23.98;;;4.45;;
52798;SDS011;38667;42.872;74.622;2022-09-13T12:59:58;24.05;;;4.25;;
52798;SDS011;38667;42.872;74.622;2022-09-13T13:02:42;20.77;;;3.88;;
52798;SDS011;38667;42.872;74.622;2022-09-13T13:05:19;18.10;;;4.43;;
52798;SDS011;38667;42.872;74.622;2022-09-13T13:07:51;23.85;;;5.85;;
52798;SDS011;38667;42.872;74.622;2022-09-13T13:10:25;26.05;;;4.68;;
52798;SDS011;38667;42.872;74.622;2022-09-13T13:12:53;31.67;;;5.35;;
52798;SDS011;38667;42.872;74.622;2022-09-13T13:18:25;18.30;;;4.88;;
52798;SDS011;38667;42.872;74.622;2022-09-13T13:21:19;24.98;;;4.82;;
52798;SDS011;38667;42.872;74.622;2022-09-13T13:27:00;27.85;;;5.47;;
52798;SDS011;38667;42.872;74.622;2022-09-13T13:29:44;23.40;;;5.05;;
52798;SDS011;38667;42.872;74.622;2022-09-13T13:33:04;32.08;;;5.82;;
52798;SDS011;38667;42.872;74.622;2022-09-13T13:35:37;25.67;;;6.15;;
52798;SDS011;38667;42.872;74.622;2022-09-13T13:38:15;28.00;;;5.63;;
52798;SDS011;38667;42.872;74.622;2022-09-13T13:41:04;24.90;;;6.65;;
52798;SDS011;38667;42.872;74.622;2022-09-13T13:43:32;27.55;;;6.85;;
52798;SDS011;38667;42.872;74.622;2022-09-13T13:48:50;34.67;;;8.02;;
52798;SDS011;38667;42.872;74.622;2022-09-13T13:51:20;33.42;;;8.15;;
52798;SDS011;38667;42.872;74.622;2022-09-13T13:53:56;28.23;;;7.93;;
52798;SDS011;38667;42.872;74.622;2022-09-13T13:56:31;32.45;;;8.40;;
52798;SDS011;38667;42.872;74.622;2022-09-13T13:59:12;31.48;;;11.57;;
52798;SDS011;38667;42.872;74.622;2022-09-13T14:01:48;37.05;;;13.75;;
52798;SDS011;38667;42.872;74.622;2022-09-13T14:04:29;28.48;;;11.20;;
52798;SDS011;38667;42.872;74.622;2022-09-13T14:07:22;37.15;;;11.43;;
52798;SDS011;38667;42.872;74.622;2022-09-13T14:10:11;29.73;;;11.20;;
52798;SDS011;38667;42.872;74.622;2022-09-13T14:12:48;26.92;;;11.43;;
52798;SDS011;38667;42.872;74.622;2022-09-13T14:15:33;40.63;;;11.00;;
52798;SDS011;38667;42.872;74.622;2022-09-13T14:18:27;31.35;;;8.07;;
52798;SDS011;38667;42.872;74.622;2022-09-13T14:21:21;35.67;;;8.05;;
52798;SDS011;38667;42.872;74.622;2022-09-13T14:23:49;47.15;;;6.88;;
52798;SDS011;38667;42.872;74.622;2022-09-13T14:26:32;24.50;;;6.18;;
52798;SDS011;38667;42.872;74.622;2022-09-13T14:28:59;32.10;;;6.65;;
52798;SDS011;38667;42.872;74.622;2022-09-13T14:31:25;29.30;;;7.60;;
52798;SDS011;38667;42.872;74.622;2022-09-13T14:33:51;30.17;;;7.30;;
52798;SDS011;38667;42.872;74.622;2022-09-13T14:36:19;27.35;;;5.63;;
52798;SDS011;38667;42.872;74.622;2022-09-13T14:38:47;29.25;;;5.97;;
52798;SDS011;38667;42.872;74.622;2022-09-13T14:41:16;25.55;;;5.43;;
52798;SDS011;38667;42.872;74.622;2022-09-13T14:43:45;32.30;;;6.93;;
52798;SDS011;38667;42.872;74.622;2022-09-13T14:46:15;22.35;;;6.47;;
52798;SDS011;38667;42.872;74.622;2022-09-13T14:48:47;29.58;;;7.15;;
52798;SDS011;38667;42.872;74.622;2022-09-13T14:51:15;25.05;;;6.88;;
52798;SDS011;38667;42.872;74.622;2022-09-13T14:53:45;32.53;;;8.05;;
52798;SDS011;38667;42.872;74.622;2022-09-13T14:56:15;24.33;;;6.93;;
52798;SDS011;38667;42.872;74.622;2022-09-13T14:58:47;39.03;;;7.45;;
52798;SDS011;38667;42.872;74.622;2022-09-13T15:01:17;29.42;;;6.88;;
52798;SDS011;38667;42.872;74.622;2022-09-13T15:03:47;27.42;;;6.00;;
52798;SDS011;38667;42.872;74.622;2022-09-13T15:06:21;30.95;;;6.18;;